Time;durP1;ratioP1;P1;durP2;ratioP2;P2;SDS_P1;SDS_P2;PMS_P1;PMS_P2;Temp;Humidity;BMP_temperature;BMP_pressure;BME280_temperature;BME280_humidity;BME280_pressure;Samples;Min_cycle;Max_cycle;Signal;HPM_P1;HPM_P2
2022/03/20 00:00:38;;;;;;;18.17;12.93;;;;;;;5.61;45.69;101089.00;1088417;54;20018;-81
2022/03/20 00:01:39;;;;;;;20.52;14.55;;;;;;;5.55;45.43;101094.66;1087967;54;20045;-82
2022/03/20 00:02:44;;;;;;;21.08;13.73;;;;;;;5.60;45.57;101079.31;1088091;54;20107;-81
2022/03/20 00:03:46;;;;;;;16.67;12.52;;;;;;;5.66;45.47;101076.34;1088326;54;20026;-81
2022/03/20 00:04:50;;;;;;;15.85;13.10;;;;;;;5.69;45.58;101085.91;1088293;54;20078;-81
2022/03/20 00:05:52;;;;;;;18.27;13.75;;;;;;;5.60;45.43;101087.28;1088405;54;20014;-82
2022/03/20 00:06:56;;;;;;;20.98;14.43;;;;;;;5.60;45.40;101082.84;1094450;39;20193;-81
2022/03/20 00:07:59;;;;;;;18.70;13.25;;;;;;;5.60;45.40;101087.28;1088381;54;20792;-81
2022/03/20 00:09:03;;;;;;;18.70;14.07;;;;;;;5.63;45.03;101084.47;1088405;54;20015;-81
2022/03/20 00:10:07;;;;;;;18.70;14.13;;;;;;;5.58;45.20;101083.84;1088385;47;20966;-82
2022/03/20 00:11:11;;;;;;;18.15;13.32;;;;;;;5.55;44.73;101097.31;1088363;54;20027;-81
2022/03/20 00:12:15;;;;;;;22.75;15.43;;;;;;;5.47;44.55;101090.66;1088389;54;20054;-83
2022/03/20 00:13:21;;;;;;;20.77;13.90;;;;;;;5.47;44.80;101093.31;1091291;39;20749;-83
2022/03/20 00:14:23;;;;;;;19.13;14.32;;;;;;;5.45;44.81;101089.88;1088345;54;20062;-84
2022/03/20 00:15:28;;;;;;;22.50;15.18;;;;;;;5.46;44.60;101091.59;1088344;54;20033;-82
2022/03/20 00:16:31;;;;;;;20.90;14.05;;;;;;;5.52;44.59;101092.16;1088288;54;20756;-83
2022/03/20 00:17:35;;;;;;;19.67;13.68;;;;;;;5.55;44.67;101084.03;1088383;54;20015;-83
2022/03/20 00:18:39;;;;;;;17.95;12.68;;;;;;;5.60;44.47;101081.97;1087946;54;20038;-82
2022/03/20 00:19:41;;;;;;;16.83;12.88;;;;;;;5.65;44.54;101085.25;1088120;54;20046;-83
2022/03/20 00:20:48;;;;;;;19.02;12.88;;;;;;;5.70;44.49;101085.81;1088358;54;20034;-83
2022/03/20 00:21:49;;;;;;;20.38;13.80;;;;;;;5.62;44.12;101088.06;1088263;54;20038;-83
2022/03/20 00:22:56;;;;;;;19.10;13.63;;;;;;;5.61;44.55;101079.25;1088316;54;20025;-82
2022/03/20 00:23:57;;;;;;;16.55;12.18;;;;;;;5.63;44.39;101076.50;1088300;54;21080;-82
2022/03/20 00:25:02;;;;;;;18.90;14.00;;;;;;;5.61;44.46;101073.06;1087880;54;20041;-81
2022/03/20 00:37:39;;;;;;;20.15;14.60;;;;;;;5.67;43.94;101070.06;1088210;54;20031;-80
2022/03/20 00:38:41;;;;;;;20.48;13.23;;;;;;;5.69;43.97;101059.38;1088157;54;20023;-79
2022/03/20 00:39:46;;;;;;;17.95;12.60;;;;;;;5.75;43.59;101064.31;1088236;54;20034;-81
2022/03/20 00:40:47;;;;;;;19.17;13.48;;;;;;;5.73;43.65;101060.91;1088268;54;20054;-80
2022/03/20 00:41:52;;;;;;;18.17;12.80;;;;;;;5.69;43.41;101057.56;1088085;54;20029;-82
2022/03/20 00:42:54;;;;;;;21.25;14.70;;;;;;;5.63;43.59;101066.72;1088167;54;20034;-80
2022/03/20 00:43:58;;;;;;;18.88;12.95;;;;;;;5.69;43.74;101070.84;1088189;54;20053;-80
2022/03/20 00:45:00;;;;;;;19.40;13.43;;;;;;;5.68;43.68;101069.13;1088099;54;20045;-81
2022/03/20 00:46:04;;;;;;;21.73;14.00;;;;;;;5.70;43.47;101063.75;1088341;54;20046;-81
2022/03/20 00:47:06;;;;;;;17.52;12.23;;;;;;;5.72;43.45;101059.19;1088024;54;20087;-81
2022/03/20 00:48:11;;;;;;;16.95;12.52;;;;;;;5.74;43.62;101057.31;1088276;54;20114;-80
2022/03/20 00:49:12;;;;;;;17.40;12.60;;;;;;;5.74;43.49;101068.78;1088289;54;20044;-81
2022/03/20 00:50:17;;;;;;;16.95;11.98;;;;;;;5.81;43.59;101063.94;1088095;54;21067;-81
2022/03/20 00:51:18;;;;;;;15.98;11.27;;;;;;;5.82;43.47;101059.53;1091016;39;20670;-81
2022/03/20 00:52:22;;;;;;;18.17;12.80;;;;;;;5.78;43.20;101065.00;1087761;54;20041;-81
2022/03/20 00:53:29;;;;;;;15.73;12.23;;;;;;;5.77;43.32;101057.97;1087862;54;20038;-80
2022/03/20 00:54:31;;;;;;;17.67;13.10;;;;;;;5.74;43.47;101055.53;1087884;54;20034;-81
2022/03/20 00:55:35;;;;;;;18.45;12.45;;;;;;;5.80;43.51;101056.97;1091782;39;20731;-82
2022/03/20 00:56:37;;;;;;;16.05;12.05;;;;;;;5.82;43.23;101060.38;1090696;39;20681;-82
2022/03/20 00:57:41;;;;;;;17.45;13.15;;;;;;;5.76;43.02;101064.22;1088287;54;20038;-81
2022/03/20 00:58:43;;;;;;;18.15;12.57;;;;;;;5.72;43.24;101064.50;1088318;54;20034;-82
2022/03/20 00:59:47;;;;;;;18.77;14.05;;;;;;;5.68;43.17;101063.81;1088324;54;20090;-82
2022/03/20 01:00:50;;;;;;;19.27;13.88;;;;;;;5.65;43.04;101058.69;1088324;54;20044;-81
2022/03/20 01:01:55;;;;;;;23.52;14.40;;;;;;;5.62;42.91;101053.56;1088255;54;20034;-82
2022/03/20 01:02:56;;;;;;;17.85;13.15;;;;;;;5.58;42.91;101058.19;1089399;39;20916;-82
2022/03/20 01:04:00;;;;;;;18.80;13.48;;;;;;;5.57;42.94;101055.63;1088260;54;20749;-82
2022/03/20 01:05:02;;;;;;;19.42;13.98;;;;;;;5.55;43.17;101053.06;1088300;54;20041;-81
2022/03/20 01:06:07;;;;;;;19.45;14.15;;;;;;;5.52;42.97;101055.03;1088243;54;20030;-82
2022/03/20 01:07:09;;;;;;;20.50;14.23;;;;;;;5.48;43.07;101057.00;1088277;54;20058;-81
2022/03/20 01:08:13;;;;;;;19.77;14.60;;;;;;;5.40;43.23;101056.59;1088255;54;20102;-81
2022/03/20 01:09:19;;;;;;;20.48;14.25;;;;;;;5.39;43.15;101050.41;1088315;54;20031;-82
2022/03/20 01:10:23;;;;;;;19.88;13.98;;;;;;;5.44;43.43;101055.47;1088013;54;20035;-81
2022/03/20 01:11:24;;;;;;;21.10;14.35;;;;;;;5.40;42.95;101067.19;1087842;54;20030;-82
2022/03/20 01:12:29;;;;;;;21.27;15.20;;;;;;;5.37;43.14;101054.97;1088252;54;20021;-82
2022/03/20 01:13:30;;;;;;;20.20;15.32;;;;;;;5.39;43.30;101057.53;1088244;54;20023;-81
2022/03/20 01:14:35;;;;;;;20.52;14.48;;;;;;;5.40;43.02;101053.94;1089299;46;20026;-81
2022/03/20 01:15:40;;;;;;;19.77;14.35;;;;;;;5.38;43.13;101051.38;1088300;54;20038;-81
2022/03/20 01:16:42;;;;;;;21.05;15.02;;;;;;;5.42;43.35;101050.25;1088309;54;20022;-82
2022/03/20 01:17:46;;;;;;;20.92;15.40;;;;;;;5.41;43.15;101051.19;1090169;46;20034;-82
2022/03/20 01:18:48;;;;;;;22.00;15.02;;;;;;;5.41;42.74;101053.84;1087858;54;20023;-79
2022/03/20 01:19:52;;;;;;;22.75;14.88;;;;;;;5.40;42.77;101054.78;1087875;54;20030;-82
2022/03/20 01:20:54;;;;;;;20.88;14.30;;;;;;;5.38;42.78;101059.34;1087871;54;20046;-81
2022/03/20 01:21:58;;;;;;;20.20;14.30;;;;;;;5.32;42.73;101057.00;1087916;54;20046;-79
2022/03/20 01:23:00;;;;;;;21.50;14.95;;;;;;;5.31;43.16;101056.16;1088020;54;20026;-80
2022/03/20 01:24:05;;;;;;;21.35;15.40;;;;;;;5.31;43.16;101060.59;1088268;54;20019;-80
2022/03/20 01:25:09;;;;;;;20.98;14.15;;;;;;;5.36;42.77;101055.03;1088269;54;20023;-79
2022/03/20 01:26:14;;;;;;;21.63;15.07;;;;;;;5.33;42.93;101060.53;1088271;54;20054;-80
2022/03/20 01:27:16;;;;;;;20.48;14.00;;;;;;;5.29;42.96;101049.25;1087787;54;20034;-79
2022/03/20 01:28:23;;;;;;;21.85;15.10;;;;;;;5.32;42.85;101046.41;1087944;54;20038;-80
2022/03/20 01:29:24;;;;;;;21.38;15.43;;;;;;;5.28;43.17;101052.84;1088253;54;20027;-81
2022/03/20 01:30:29;;;;;;;20.15;14.20;;;;;;;5.34;42.91;101051.63;1088290;54;20057;-81
2022/03/20 01:40:26;;;;;;;18.30;13.23;;;;;;;5.50;43.06;101035.69;1088696;54;20015;-82
2022/03/20 01:41:28;;;;;;;19.17;12.93;;;;;;;5.49;43.26;101034.84;1088615;54;20039;-83
2022/03/20 01:42:48;;;;;;;18.35;13.23;;;;;;;5.46;42.75;101035.88;1088616;54;20023;-83
2022/03/20 01:43:50;;;;;;;18.83;12.57;;;;;;;5.53;43.23;101033.72;1088400;54;20019;-82
2022/03/20 01:44:54;;;;;;;17.48;12.48;;;;;;;5.56;43.30;101030.91;1088437;54;20114;-81
2022/03/20 01:45:56;;;;;;;18.35;13.00;;;;;;;5.60;42.96;101036.88;1088551;54;20018;-83
2022/03/20 01:47:11;;;;;;;18.15;13.23;;;;;;;5.63;42.74;101031.41;1088450;54;20086;-83
2022/03/20 01:48:18;;;;;;;20.27;13.50;;;;;;;5.63;42.93;101034.06;1088435;54;20031;-84
2022/03/20 01:49:22;;;;;;;17.33;12.23;;;;;;;5.65;43.21;101032.16;1088461;54;20018;-83
2022/03/20 01:50:26;;;;;;;15.60;12.23;;;;;;;5.66;43.12;101027.72;1088400;54;20019;-82
2022/03/20 01:52:48;;;;;;;17.42;12.40;;;;;;;5.74;43.11;101026.34;1088618;54;20014;-83
2022/03/20 01:53:49;;;;;;;16.33;11.88;;;;;;;5.78;43.26;101027.00;1088526;54;20034;-82
2022/03/20 01:54:54;;;;;;;16.10;12.35;;;;;;;5.78;42.93;101017.22;1088591;54;20018;-83
2022/03/20 01:55:58;;;;;;;16.92;11.23;;;;;;;5.79;43.01;101018.09;1088669;54;20019;-82
2022/03/20 01:57:03;;;;;;;18.17;13.25;;;;;;;5.81;42.89;101023.31;1088649;54;20057;-83
2022/03/20 01:58:07;;;;;;;18.40;13.25;;;;;;;5.78;42.84;101013.75;1088603;54;20018;-82
2022/03/20 01:59:09;;;;;;;18.83;13.00;;;;;;;5.73;42.95;101014.00;1088523;54;20041;-83
2022/03/20 02:00:17;;;;;;;17.30;12.27;;;;;;;5.77;42.99;101017.34;1091764;46;20034;-83
2022/03/20 02:01:19;;;;;;;15.20;11.10;;;;;;;5.84;43.17;101016.03;1088614;54;20035;-82
2022/03/20 02:02:29;;;;;;;15.10;10.90;;;;;;;5.88;42.99;101017.56;1088515;54;20095;-81
2022/03/20 02:03:30;;;;;;;19.02;11.35;;;;;;;5.90;43.00;101015.66;1088523;54;20030;-83
2022/03/20 02:04:37;;;;;;;16.67;11.70;;;;;;;5.88;43.06;101011.38;1088566;54;20027;-82
2022/03/20 02:05:41;;;;;;;16.70;12.55;;;;;;;5.89;43.21;101018.41;1097491;39;20495;-82
2022/03/20 02:06:47;;;;;;;14.80;11.88;;;;;;;5.89;42.93;101013.09;1088472;54;20042;-82
2022/03/20 02:07:52;;;;;;;17.80;12.73;;;;;;;5.86;43.18;101013.25;1088387;54;20054;-83
2022/03/20 02:08:54;;;;;;;18.30;12.95;;;;;;;5.78;43.31;101006.63;1088557;54;20042;-82
2022/03/20 02:10:00;;;;;;;16.88;11.90;;;;;;;5.83;43.35;101011.66;1088562;54;20015;-83
2022/03/20 02:11:04;;;;;;;18.15;13.05;;;;;;;5.83;43.56;101011.66;1090533;39;20472;-81
2022/03/20 02:12:10;;;;;;;19.52;13.23;;;;;;;5.81;43.67;101008.22;1088498;54;20006;-83
2022/03/20 02:13:11;;;;;;;18.40;12.35;;;;;;;5.84;43.71;101017.84;1088431;54;20022;-83
2022/03/20 02:14:16;;;;;;;16.77;11.32;;;;;;;5.84;43.83;101016.03;1088572;54;20098;-84
2022/03/20 02:15:18;;;;;;;16.00;11.57;;;;;;;5.85;43.65;101007.13;1088473;54;20026;-83
2022/03/20 02:18:36;;;;;;;17.15;12.32;;;;;;;5.88;43.97;101011.38;1088101;54;20025;-80
2022/03/20 02:19:39;;;;;;;18.77;12.82;;;;;;;5.83;43.92;101011.66;1088143;54;20041;-80
2022/03/20 02:20:44;;;;;;;17.13;11.77;;;;;;;5.82;44.08;101012.59;1088181;54;20041;-83
2022/03/20 02:21:49;;;;;;;17.67;12.95;;;;;;;5.81;44.12;101008.22;1088166;54;20019;-80
2022/03/20 02:22:54;;;;;;;19.88;13.38;;;;;;;5.79;44.36;101010.13;1088163;54;20057;-83
2022/03/20 02:23:56;;;;;;;20.92;13.80;;;;;;;5.75;44.26;101013.91;1087716;54;20030;-81
2022/03/20 02:25:08;;;;;;;20.42;13.02;;;;;;;5.76;44.34;101002.34;1087932;54;20057;-81
2022/03/20 02:26:09;;;;;;;17.83;13.07;;;;;;;5.74;44.47;101009.53;1088188;54;20034;-81
2022/03/20 02:27:16;;;;;;;18.55;13.32;;;;;;;5.74;44.71;101002.44;1088144;54;20086;-81
2022/03/20 02:28:21;;;;;;;18.35;12.73;;;;;;;5.76;44.55;101003.19;1088155;54;20038;-82
2022/03/20 02:29:23;;;;;;;16.35;11.82;;;;;;;5.81;44.43;100996.78;1089118;39;20582;-80
2022/03/20 02:30:30;;;;;;;17.00;12.25;;;;;;;5.80;44.73;101003.88;1093788;39;20617;-81
2022/03/20 02:31:32;;;;;;;16.00;11.48;;;;;;;5.83;44.44;101006.34;1089628;39;20579;-80
2022/03/20 02:32:37;;;;;;;16.27;11.50;;;;;;;5.83;44.56;101002.84;1091182;46;20046;-80
2022/03/20 02:33:39;;;;;;;17.13;12.35;;;;;;;5.86;44.77;100992.03;1105150;39;20638;-81
2022/03/20 02:34:45;;;;;;;18.25;12.85;;;;;;;5.83;44.83;100994.88;1088436;54;20038;-80
2022/03/20 02:35:47;;;;;;;15.80;11.65;;;;;;;5.78;44.92;100990.69;1088310;54;20019;-83
2022/03/20 02:36:54;;;;;;;17.38;12.70;;;;;;;5.75;44.63;100990.03;1088354;54;20038;-80
2022/03/20 02:37:58;;;;;;;17.77;13.82;;;;;;;5.77;44.74;100990.78;1088303;54;20038;-81
2022/03/20 02:39:00;;;;;;;16.60;11.98;;;;;;;5.79;44.99;100991.56;1089893;47;20026;-81
2022/03/20 02:40:06;;;;;;;17.80;12.43;;;;;;;5.77;44.84;100988.13;1089865;47;20034;-82
2022/03/20 02:41:14;;;;;;;17.08;12.30;;;;;;;5.76;44.90;100992.56;1091819;39;20614;-81
2022/03/20 02:42:16;;;;;;;18.42;13.35;;;;;;;5.75;44.85;100984.72;1088127;54;20034;-81
2022/03/20 02:43:20;;;;;;;19.88;14.27;;;;;;;5.66;44.74;100991.44;1088123;54;20031;-82
2022/03/20 02:44:53;;;;;;;18.83;13.82;;;;;;;5.57;44.76;100984.03;1088154;54;20034;-80
2022/03/20 02:45:57;;;;;;;21.73;14.13;;;;;;;5.53;44.85;100977.16;1088182;54;20022;-81
2022/03/20 02:47:02;;;;;;;23.05;15.27;;;;;;;5.41;45.14;100974.28;1088519;39;20570;-83
2022/03/20 02:48:07;;;;;;;21.02;15.00;;;;;;;5.41;45.38;100968.13;1091258;47;20039;-81
2022/03/20 02:49:10;;;;;;;20.73;14.77;;;;;;;5.46;45.12;100969.59;1088147;54;20018;-80
2022/03/20 02:50:16;;;;;;;20.33;14.88;;;;;;;5.45;44.96;100977.59;1088190;54;20738;-81
2022/03/20 02:51:18;;;;;;;19.17;12.85;;;;;;;5.50;44.94;100982.63;1088129;54;20723;-81
2022/03/20 02:52:28;;;;;;;19.45;13.27;;;;;;;5.55;44.89;100985.91;1088121;54;20057;-80
2022/03/20 02:53:29;;;;;;;18.70;12.70;;;;;;;5.59;44.79;100987.41;1088131;54;20046;-81
2022/03/20 02:54:35;;;;;;;17.48;12.52;;;;;;;5.66;44.68;100986.13;1088165;54;20019;-80
2022/03/20 02:55:40;;;;;;;19.30;12.65;;;;;;;5.67;44.59;100986.97;1088920;47;20039;-81
2022/03/20 02:56:42;;;;;;;18.02;12.73;;;;;;;5.69;44.41;100999.19;1088268;54;20038;-80
2022/03/20 02:57:47;;;;;;;16.08;12.02;;;;;;;5.72;44.43;100987.53;1088072;54;20070;-80
2022/03/20 02:58:49;;;;;;;19.50;13.38;;;;;;;5.67;44.49;100993.13;1088460;54;20111;-81
2022/03/20 02:59:53;;;;;;;20.58;14.07;;;;;;;5.67;44.49;100987.81;1088527;54;20077;-80
2022/03/20 03:00:58;;;;;;;19.35;13.68;;;;;;;5.65;44.56;100987.06;1090436;39;20704;-80
2022/03/20 03:02:00;;;;;;;18.05;13.73;;;;;;;5.69;44.59;100977.97;1088450;54;20690;-81
2022/03/20 03:03:06;;;;;;;19.63;14.35;;;;;;;5.69;44.61;100995.69;1088531;54;20035;-80
2022/03/20 03:04:08;;;;;;;22.58;13.48;;;;;;;5.65;44.45;100981.75;1088448;54;20034;-79
2022/03/20 03:05:14;;;;;;;18.10;13.68;;;;;;;5.67;44.33;100986.97;1088504;54;20024;-80
2022/03/20 03:06:19;;;;;;;20.45;14.18;;;;;;;5.67;44.47;100989.63;1088422;54;20094;-80
2022/03/20 03:07:23;;;;;;;19.63;13.80;;;;;;;5.65;44.26;100984.41;1088425;54;20690;-79
2022/03/20 03:11:01;;;;;;;19.88;14.20;;;;;;;5.58;44.32;100983.03;1088500;54;20019;-80
2022/03/20 03:12:05;;;;;;;21.58;15.07;;;;;;;5.57;44.44;100978.72;1088438;54;20031;-81
2022/03/20 03:13:10;;;;;;;20.75;15.10;;;;;;;5.55;44.74;100978.78;1088381;54;20027;-82
2022/03/20 03:15:31;;;;;;;21.35;14.95;;;;;;;5.54;44.68;100977.06;1088486;54;20031;-80
2022/03/20 03:16:32;;;;;;;21.60;15.10;;;;;;;5.56;44.69;100984.97;1088487;54;20035;-81
2022/03/20 03:17:37;;;;;;;21.73;16.20;;;;;;;5.56;44.71;100991.09;1088495;54;20014;-83
2022/03/20 03:18:43;;;;;;;19.17;14.77;;;;;;;5.54;44.62;100981.53;1088469;54;20030;-80
2022/03/20 03:19:45;;;;;;;19.88;14.80;;;;;;;5.55;44.78;100983.25;1088448;54;20034;-79
2022/03/20 03:20:50;;;;;;;20.60;14.35;;;;;;;5.55;44.63;100985.91;1088457;54;20034;-81
2022/03/20 03:21:51;;;;;;;23.42;16.20;;;;;;;5.55;44.64;100983.25;1088917;39;20711;-81
2022/03/20 03:23:00;;;;;;;20.10;14.15;;;;;;;5.60;44.61;100986.47;1088438;54;20706;-81
2022/03/20 03:25:09;;;;;;;19.23;14.07;;;;;;;5.64;44.56;100988.00;1088344;54;20031;-77
2022/03/20 03:26:15;;;;;;;21.25;15.00;;;;;;;5.61;44.58;100989.06;1088382;54;20038;-77
2022/03/20 03:27:17;;;;;;;23.45;15.65;;;;;;;5.58;44.64;100983.91;1088404;54;20035;-77
2022/03/20 03:28:22;;;;;;;21.88;15.52;;;;;;;5.56;44.85;100990.25;1088420;54;20042;-77
2022/03/20 03:29:23;;;;;;;20.38;14.48;;;;;;;5.57;44.67;100974.25;1088588;54;20034;-77
2022/03/20 03:30:28;;;;;;;22.25;15.55;;;;;;;5.51;44.69;100984.34;1088437;54;20034;-78
2022/03/20 03:31:29;;;;;;;23.20;16.17;;;;;;;5.46;44.79;100989.94;1088345;54;20106;-78
2022/03/20 03:32:34;;;;;;;19.48;15.30;;;;;;;5.50;44.61;100977.34;1088584;54;20034;-78
2022/03/20 03:35:41;;;;;;;24.42;15.20;;;;;;;5.50;44.83;100980.00;1088470;54;20046;-78
2022/03/20 03:36:19;;;;;;;21.30;16.33;;;;;;;5.52;44.29;100983.41;1088361;54;20094;-77
2022/03/20 03:37:22;;;;;;;23.98;15.77;;;;;;;5.57;44.60;100989.31;1088360;54;20034;-77
2022/03/20 03:38:30;;;;;;;20.27;14.43;;;;;;;5.59;44.48;100990.06;1088428;54;20041;-77
2022/03/20 03:39:31;;;;;;;21.73;14.88;;;;;;;5.56;44.20;100991.09;1088384;54;20041;-78
2022/03/20 03:40:37;;;;;;;22.60;15.95;;;;;;;5.58;44.21;100993.66;1088354;54;20713;-77
2022/03/20 03:41:38;;;;;;;20.92;15.57;;;;;;;5.56;44.19;100988.44;1088172;54;20029;-76
2022/03/20 03:42:42;;;;;;;21.60;15.60;;;;;;;5.56;44.46;100990.25;1088170;54;20046;-78
2022/03/20 03:43:47;;;;;;;25.17;17.35;;;;;;;5.54;44.29;100985.03;1087954;54;20035;-77
2022/03/20 03:44:50;;;;;;;19.98;15.68;;;;;;;5.59;44.55;100979.44;1087977;54;20042;-79
2022/03/20 03:45:56;;;;;;;19.75;15.15;;;;;;;5.53;44.43;100980.66;1088460;39;20689;-77
2022/03/20 03:46:58;;;;;;;21.52;15.20;;;;;;;5.57;44.41;100984.03;1088004;54;20059;-77
2022/03/20 03:48:04;;;;;;;21.50;15.75;;;;;;;5.63;44.45;100975.69;1088027;54;20031;-78
2022/03/20 03:49:05;;;;;;;21.42;14.77;;;;;;;5.63;44.55;100981.84;1088370;54;20030;-78
2022/03/20 03:50:10;;;;;;;18.58;14.13;;;;;;;5.70;44.34;100982.34;1088382;54;20028;-78
2022/03/20 03:51:15;;;;;;;20.45;15.27;;;;;;;5.72;44.49;100983.09;1088410;54;20046;-78
2022/03/20 03:52:16;;;;;;;20.25;15.05;;;;;;;5.70;44.30;100987.66;1088371;54;20760;-77
2022/03/20 03:53:20;;;;;;;18.30;13.77;;;;;;;5.75;44.27;100982.06;1088839;39;20644;-78
2022/03/20 03:54:25;;;;;;;17.45;13.25;;;;;;;5.82;44.17;100987.88;1088313;54;20058;-78
2022/03/20 03:55:29;;;;;;;19.55;14.20;;;;;;;5.77;44.26;100996.09;1093634;31;20723;-77
2022/03/20 03:56:31;;;;;;;18.88;14.20;;;;;;;5.83;44.14;100987.78;1090395;39;20639;-79
2022/03/20 03:57:35;;;;;;;19.00;14.07;;;;;;;5.87;44.08;100985.78;1090816;39;20725;-78
2022/03/20 03:58:37;;;;;;;21.90;16.27;;;;;;;5.86;44.09;100981.41;1090351;39;21024;-79
2022/03/20 03:59:41;;;;;;;21.58;15.30;;;;;;;5.83;44.23;100992.25;1088406;54;20090;-78
2022/03/20 04:00:43;;;;;;;20.77;15.18;;;;;;;5.81;44.22;100988.81;1090610;39;20599;-78
2022/03/20 04:01:49;;;;;;;21.50;15.55;;;;;;;5.80;44.25;100985.31;1088344;54;20119;-77
2022/03/20 04:02:50;;;;;;;20.83;15.25;;;;;;;5.81;44.34;100988.81;1088338;54;20061;-77
2022/03/20 04:03:54;;;;;;;21.23;15.52;;;;;;;5.76;44.39;100989.91;1091416;46;20034;-78
2022/03/20 04:04:56;;;;;;;22.30;15.68;;;;;;;5.74;44.37;100983.88;1088090;54;20041;-77
2022/03/20 04:06:06;;;;;;;21.52;16.38;;;;;;;5.68;44.64;100984.22;1088423;54;20033;-77
2022/03/20 04:07:08;;;;;;;24.80;17.05;;;;;;;5.63;44.62;100981.00;1088147;54;20042;-78
2022/03/20 04:08:15;;;;;;;22.15;15.57;;;;;;;5.65;44.77;100984.41;1088163;54;20033;-77
2022/03/20 04:09:16;;;;;;;24.25;15.93;;;;;;;5.71;44.79;100984.06;1088914;46;20027;-77
2022/03/20 04:10:24;;;;;;;21.55;16.67;;;;;;;5.71;44.81;100988.50;1088338;54;20030;-77
2022/03/20 04:11:26;;;;;;;20.55;15.93;;;;;;;5.72;44.59;100977.81;1088377;54;20034;-77
2022/03/20 04:12:31;;;;;;;24.50;16.63;;;;;;;5.71;44.88;100977.91;1088297;54;20094;-77
2022/03/20 04:13:35;;;;;;;24.13;16.58;;;;;;;5.69;44.85;100979.78;1088206;54;20050;-78
2022/03/20 04:14:37;;;;;;;23.70;16.20;;;;;;;5.72;44.77;100979.59;1088321;54;20018;-77
2022/03/20 04:15:41;;;;;;;19.52;14.30;;;;;;;5.75;44.80;100982.06;1088324;54;20725;-78
2022/03/20 04:16:43;;;;;;;20.40;15.13;;;;;;;5.79;44.57;100983.59;1088286;54;20049;-77
2022/03/20 04:17:47;;;;;;;21.08;15.55;;;;;;;5.80;44.65;100985.31;1088268;54;20689;-77
2022/03/20 04:18:50;;;;;;;21.80;16.15;;;;;;;5.76;44.63;100978.47;1090179;46;20153;-77
2022/03/20 04:19:54;;;;;;;21.52;16.65;;;;;;;5.75;44.65;100982.06;1088203;54;20031;-77
2022/03/20 04:20:56;;;;;;;23.05;16.63;;;;;;;5.77;44.86;100978.38;1088277;39;20669;-77
2022/03/20 04:22:01;;;;;;;22.13;15.60;;;;;;;5.74;44.69;100973.25;1088136;54;20034;-77
2022/03/20 04:24:22;;;;;;;22.85;16.10;;;;;;;5.75;44.78;100982.94;1087995;54;20045;-76
2022/03/20 04:25:26;;;;;;;25.42;16.30;;;;;;;5.70;45.08;100982.34;1088289;54;20030;-76
2022/03/20 04:26:33;;;;;;;21.58;16.10;;;;;;;5.77;44.97;100977.53;1088242;54;20844;-77
2022/03/20 04:27:34;;;;;;;19.75;15.35;;;;;;;5.81;44.90;100978.19;1088266;54;20036;-77
2022/03/20 04:28:39;;;;;;;20.48;15.20;;;;;;;5.85;44.96;100977.91;1088356;54;20765;-77
2022/03/20 04:29:41;;;;;;;24.15;16.38;;;;;;;5.87;44.77;100980.47;1088276;54;20041;-76
2022/03/20 04:30:48;;;;;;;20.60;15.07;;;;;;;5.89;44.73;100982.13;1088338;54;20030;-78
2022/03/20 04:31:49;;;;;;;21.27;15.90;;;;;;;5.82;44.84;100979.91;1090502;46;20031;-77
2022/03/20 04:32:54;;;;;;;22.55;16.80;;;;;;;5.83;45.04;100978.97;1088331;54;20034;-76
2022/03/20 04:33:56;;;;;;;24.08;16.25;;;;;;;5.81;45.06;100972.88;1088301;54;20034;-77
2022/03/20 04:35:00;;;;;;;21.02;15.60;;;;;;;5.80;44.84;100977.34;1088381;54;20026;-77
2022/03/20 04:36:02;;;;;;;22.20;16.85;;;;;;;5.76;45.17;100976.66;1088338;54;20021;-77
2022/03/20 04:37:07;;;;;;;24.08;17.92;;;;;;;5.73;45.10;100968.91;1087990;54;20682;-77
2022/03/20 04:38:08;;;;;;;21.38;16.80;;;;;;;5.78;44.88;100968.63;1088029;54;20030;-78
2022/03/20 04:39:13;;;;;;;23.58;16.70;;;;;;;5.81;45.20;100976.38;1088723;46;20037;-77
2022/03/20 04:40:14;;;;;;;21.83;16.15;;;;;;;5.84;44.81;100970.06;1088365;54;20026;-77
2022/03/20 04:41:21;;;;;;;23.88;16.25;;;;;;;5.86;45.01;100973.44;1088387;54;20025;-77
2022/03/20 04:42:27;;;;;;;23.02;16.15;;;;;;;5.82;44.94;100974.59;1088281;54;20778;-78
2022/03/20 04:43:28;;;;;;;25.17;17.73;;;;;;;5.80;45.12;100977.34;1088317;54;20022;-78
2022/03/20 04:44:33;;;;;;;27.15;17.88;;;;;;;5.77;45.31;100973.06;1088338;54;20066;-76
2022/03/20 04:45:34;;;;;;;23.17;17.65;;;;;;;5.71;45.46;100978.75;1088881;46;20034;-77
2022/03/20 04:46:38;;;;;;;25.27;18.40;;;;;;;5.70;45.51;100971.72;1088289;54;20780;-78
2022/03/20 04:59:16;;;;;;;20.60;15.45;;;;;;;5.80;45.31;100976.47;1088311;54;20037;-79
2022/03/20 05:00:21;;;;;;;19.77;14.77;;;;;;;5.88;45.33;100988.38;1088340;54;20034;-77
2022/03/20 05:01:22;;;;;;;18.80;13.52;;;;;;;5.96;45.22;100984.38;1088265;54;20078;-77
2022/03/20 05:02:27;;;;;;;19.10;12.90;;;;;;;6.02;45.08;100982.25;1088289;54;20042;-78
2022/03/20 05:03:31;;;;;;;18.35;13.10;;;;;;;6.06;45.18;101005.00;1088244;54;20154;-77
2022/03/20 05:04:36;;;;;;;20.15;13.50;;;;;;;6.08;45.03;101004.94;1088301;54;20025;-78
2022/03/20 05:05:38;;;;;;;17.65;12.80;;;;;;;6.15;45.20;100994.78;1093917;39;20636;-78
2022/03/20 05:06:43;;;;;;;20.80;13.35;;;;;;;6.16;44.93;100988.53;1088301;54;20034;-78
2022/03/20 05:07:44;;;;;;;19.70;15.10;;;;;;;6.13;45.18;100986.06;1088281;54;20023;-78
2022/03/20 05:08:50;;;;;;;21.25;15.77;;;;;;;6.13;44.99;100986.91;1088254;54;20030;-78
2022/03/20 05:13:43;;;;;;;22.30;16.35;;;;;;;6.01;45.30;100988.50;1088206;54;20018;-78
2022/03/20 05:14:48;;;;;;;24.30;18.05;;;;;;;6.02;45.40;100992.88;1088199;54;20010;-77
2022/03/20 05:15:55;;;;;;;23.30;17.25;;;;;;;6.02;45.49;100995.53;1088214;54;20023;-77
2022/03/20 05:16:56;;;;;;;22.90;16.83;;;;;;;6.01;45.64;100996.47;1088196;54;20035;-78
2022/03/20 05:18:01;;;;;;;21.98;16.65;;;;;;;6.03;45.30;100994.59;1094785;39;21068;-78
2022/03/20 05:19:02;;;;;;;23.35;17.40;;;;;;;5.97;45.57;100988.75;1095242;39;20639;-78
2022/03/20 05:20:07;;;;;;;24.80;17.98;;;;;;;5.92;45.80;100992.53;1088234;54;20037;-77
2022/03/20 05:21:12;;;;;;;24.98;19.17;;;;;;;5.85;46.04;100985.03;1088249;54;20034;-77
2022/03/20 05:22:13;;;;;;;24.30;18.83;;;;;;;5.80;45.96;100989.75;1088208;54;20031;-78
2022/03/20 05:23:18;;;;;;;25.02;19.05;;;;;;;5.83;46.01;100987.78;1088225;54;20026;-77
2022/03/20 05:24:19;;;;;;;25.85;18.35;;;;;;;5.74;46.23;100989.19;1088165;54;20074;-79
2022/03/20 05:25:24;;;;;;;24.83;18.13;;;;;;;5.80;46.26;100989.75;1091301;39;20824;-77
2022/03/20 05:26:25;;;;;;;24.83;18.45;;;;;;;5.79;46.34;100996.88;1088197;54;20043;-77
2022/03/20 05:27:32;;;;;;;25.13;17.60;;;;;;;5.85;46.03;100998.31;1087752;54;20034;-78
2022/03/20 05:28:37;;;;;;;24.48;17.55;;;;;;;5.86;46.16;100992.03;1087995;54;20684;-77
2022/03/20 05:29:40;;;;;;;23.58;17.20;;;;;;;5.90;46.03;100988.25;1088225;54;20041;-78
2022/03/20 05:30:45;;;;;;;22.02;16.58;;;;;;;5.88;46.06;100987.50;1088179;54;20038;-77
2022/03/20 05:31:47;;;;;;;23.02;16.80;;;;;;;5.90;46.07;100994.41;1088165;54;20045;-77
2022/03/20 05:32:51;;;;;;;23.13;16.35;;;;;;;5.95;46.07;101002.13;1088205;54;20053;-77
2022/03/20 05:33:53;;;;;;;22.10;16.17;;;;;;;6.02;45.79;101003.50;1088168;54;20034;-78
2022/03/20 05:34:57;;;;;;;21.30;16.67;;;;;;;6.00;45.95;101001.88;1088124;54;20035;-78
2022/03/20 05:35:59;;;;;;;23.33;16.55;;;;;;;6.00;46.12;101007.19;1088214;54;20038;-78
2022/03/20 05:37:03;;;;;;;25.10;19.23;;;;;;;5.95;45.91;100996.81;1088137;54;20746;-78
2022/03/20 05:38:08;;;;;;;29.17;18.90;;;;;;;5.92;45.99;101002.31;1088203;54;20069;-78
2022/03/20 05:39:12;;;;;;;25.67;18.25;;;;;;;5.91;46.17;101006.75;1088194;54;20023;-78
2022/03/20 05:40:18;;;;;;;24.42;18.45;;;;;;;5.91;46.36;101013.88;1088943;46;20038;-77
2022/03/20 05:42:42;;;;;;;22.10;16.58;;;;;;;5.97;46.07;101021.44;1088155;54;20059;-78